createdAt,value
2022-08-26T00:00:24.726Z,53.95
2022-08-26T00:02:58.180Z,53.95
2022-08-26T00:05:31.378Z,54.17
2022-08-26T00:08:04.907Z,54.44
2022-08-26T00:10:39.627Z,54.67
2022-08-26T00:13:13.827Z,54.38
2022-08-26T00:15:47.199Z,54.79
2022-08-26T00:18:21.726Z,54.40
2022-08-26T00:20:55.858Z,54.17
2022-08-26T00:23:29.093Z,53.98
2022-08-26T00:26:07.145Z,54.65
2022-08-26T00:28:41.742Z,54.38
2022-08-26T00:31:14.999Z,54.37
2022-08-26T00:33:47.869Z,54.47
2022-08-26T00:36:22.635Z,54.29
2022-08-26T00:38:56.097Z,53.96
2022-08-26T00:41:30.264Z,54.56
2022-08-26T00:44:04.104Z,54.46
2022-08-26T00:46:45.001Z,55.00
2022-08-26T00:49:25.832Z,54.73
2022-08-26T00:52:02.006Z,54.62
2022-08-26T00:54:40.449Z,55.17
2022-08-26T00:57:19.706Z,54.21
2022-08-26T00:59:56.896Z,54.23
2022-08-26T01:02:30.044Z,54.68
2022-08-26T01:05:06.969Z,54.73
2022-08-26T01:07:40.742Z,54.62
2022-08-26T01:10:16.189Z,55.05
2022-08-26T01:12:53.025Z,54.94
2022-08-26T01:15:32.941Z,54.92
2022-08-26T01:18:07.338Z,54.56
2022-08-26T01:20:51.770Z,54.50
2022-08-26T01:23:29.128Z,54.42
2022-08-26T01:26:06.896Z,54.37
2022-08-26T01:28:41.617Z,54.86
2022-08-26T01:31:19.468Z,54.57
2022-08-26T01:34:00.801Z,54.78
2022-08-26T01:36:33.688Z,54.51
2022-08-26T01:39:09.724Z,54.66
2022-08-26T01:41:44.720Z,54.61
2022-08-26T01:44:23.015Z,54.55
2022-08-26T01:46:58.612Z,54.71
2022-08-26T01:49:32.429Z,54.73
2022-08-26T01:52:09.498Z,54.82
2022-08-26T01:54:46.319Z,54.69
2022-08-26T01:57:24.999Z,54.42
2022-08-26T02:00:01.065Z,54.55
2022-08-26T02:02:34.013Z,55.10
2022-08-26T02:05:07.747Z,54.64
2022-08-26T02:07:43.029Z,54.59
2022-08-26T02:10:17.355Z,54.51
2022-08-26T02:12:53.475Z,54.45
2022-08-26T02:15:26.450Z,54.87
2022-08-26T02:17:59.279Z,54.95
2022-08-26T02:20:32.777Z,54.63
2022-08-26T02:23:05.928Z,54.68
2022-08-26T02:25:50.552Z,54.38
2022-08-26T02:28:26.968Z,54.46
2022-08-26T02:30:59.959Z,54.12
2022-08-26T02:33:35.725Z,54.42
2022-08-26T02:36:09.588Z,54.75
2022-08-26T02:38:45.057Z,54.71
2022-08-26T02:41:20.360Z,54.37
2022-08-26T02:43:55.956Z,54.38
2022-08-26T02:46:29.950Z,54.55
2022-08-26T02:49:03.158Z,54.72
2022-08-26T02:51:36.229Z,54.96
2022-08-26T02:54:09.243Z,54.72
2022-08-26T02:56:44.754Z,54.79
2022-08-26T02:59:17.936Z,54.86
2022-08-26T03:01:50.701Z,55.06
2022-08-26T03:04:23.573Z,55.02
2022-08-26T03:06:58.968Z,55.16
2022-08-26T03:09:31.668Z,54.72
2022-08-26T03:12:06.329Z,54.92
2022-08-26T03:14:40.325Z,54.87
2022-08-26T03:17:13.108Z,54.88
2022-08-26T03:19:45.981Z,54.54
2022-08-26T03:22:19.012Z,54.64
2022-08-26T03:24:53.521Z,54.74
2022-08-26T03:27:28.449Z,54.24
2022-08-26T03:30:24.499Z,54.20
2022-08-26T03:32:59.980Z,54.33
2022-08-26T03:35:34.102Z,54.30
2022-08-26T03:38:08.622Z,54.59
2022-08-26T03:40:43.369Z,54.77
2022-08-26T03:43:18.237Z,54.27
2022-08-26T03:45:51.330Z,55.00
2022-08-26T03:48:25.449Z,54.82
2022-08-26T03:50:58.096Z,54.44
2022-08-26T03:53:31.300Z,54.73
2022-08-26T03:56:04.564Z,54.84
2022-08-26T03:58:38.821Z,55.27
2022-08-26T04:01:16.325Z,55.32
2022-08-26T04:04:01.554Z,55.15
2022-08-26T04:06:38.508Z,55.28
2022-08-26T04:09:14.352Z,55.52
2022-08-26T04:11:50.541Z,55.59
2022-08-26T04:14:27.473Z,55.93
2022-08-26T04:17:00.292Z,56.15
2022-08-26T04:19:33.760Z,55.04
2022-08-26T04:22:06.581Z,55.71
2022-08-26T04:24:40.224Z,56.47
2022-08-26T04:27:13.120Z,56.28
2022-08-26T04:29:48.281Z,56.15
2022-08-26T04:32:22.525Z,56.06
2022-08-26T04:34:55.286Z,55.77
2022-08-26T04:37:28.094Z,55.73
2022-08-26T04:40:00.928Z,55.42
2022-08-26T04:42:34.207Z,55.50
2022-08-26T04:45:10.211Z,55.91
2022-08-26T04:47:43.478Z,56.47
2022-08-26T04:50:16.161Z,56.20
2022-08-26T04:52:56.476Z,56.22
2022-08-26T04:55:38.470Z,55.87
2022-08-26T04:58:15.887Z,55.86
2022-08-26T05:00:52.986Z,56.00
2022-08-26T05:03:30.438Z,55.92
2022-08-26T05:06:06.130Z,55.97
2022-08-26T05:08:39.412Z,56.04
2022-08-26T05:11:13.734Z,55.63
2022-08-26T05:13:47.823Z,55.79
2022-08-26T05:16:23.418Z,55.61
2022-08-26T05:18:56.081Z,55.50
2022-08-26T05:21:29.493Z,55.79
2022-08-26T05:24:02.557Z,55.53
2022-08-26T05:26:36.259Z,55.73
2022-08-26T05:29:08.829Z,55.94
2022-08-26T05:31:44.169Z,55.86
2022-08-26T05:34:16.879Z,55.89
2022-08-26T05:36:49.850Z,56.08
2022-08-26T05:39:23.451Z,55.88
2022-08-26T05:41:56.503Z,56.07
2022-08-26T05:44:29.252Z,56.37
2022-08-26T05:47:23.396Z,55.74
2022-08-26T05:49:56.235Z,55.99
2022-08-26T05:52:28.893Z,55.65
2022-08-26T05:55:02.111Z,55.89
2022-08-26T05:57:39.976Z,56.05
2022-08-26T06:00:16.267Z,55.97
2022-08-26T06:02:51.250Z,55.56
2022-08-26T06:05:24.112Z,55.77
2022-08-26T06:08:14.169Z,55.66
2022-08-26T06:10:48.314Z,56.40
2022-08-26T06:13:30.401Z,56.24
2022-08-26T06:16:13.227Z,56.05
2022-08-26T06:18:50.682Z,55.84
2022-08-26T06:21:25.837Z,55.88
2022-08-26T06:24:17.543Z,55.90
2022-08-26T06:26:53.950Z,55.61
2022-08-26T06:29:27.291Z,55.76
2022-08-26T06:32:01.290Z,56.07
2022-08-26T06:34:35.792Z,55.80
2022-08-26T06:37:08.828Z,56.11
2022-08-26T06:39:41.534Z,55.75
2022-08-26T06:42:14.523Z,55.98
2022-08-26T06:44:48.272Z,55.91
2022-08-26T06:47:20.949Z,56.39
2022-08-26T06:49:55.151Z,56.02
2022-08-26T06:52:27.850Z,56.41
2022-08-26T06:55:01.922Z,55.71
2022-08-26T06:57:37.778Z,55.36
2022-08-26T07:00:15.480Z,55.82
2022-08-26T07:02:48.257Z,55.91
2022-08-26T07:05:23.626Z,55.78
2022-08-26T07:07:57.266Z,56.17
2022-08-26T07:10:30.057Z,55.79
2022-08-26T07:13:02.834Z,55.72
2022-08-26T07:15:37.107Z,55.71
2022-08-26T07:18:10.110Z,55.87
2022-08-26T07:20:45.456Z,56.01
2022-08-26T07:23:18.174Z,55.92
2022-08-26T07:25:51.473Z,56.95
2022-08-26T07:28:24.292Z,57.97
2022-08-26T07:30:58.588Z,59.00
2022-08-26T07:33:31.555Z,59.66
2022-08-26T07:36:07.159Z,59.07
2022-08-26T07:38:41.022Z,58.71
2022-08-26T07:41:17.401Z,58.94
2022-08-26T07:43:50.430Z,58.46
2022-08-26T07:46:27.501Z,58.43
2022-08-26T07:49:03.131Z,59.16
2022-08-26T07:51:37.716Z,59.65
2022-08-26T07:54:10.411Z,59.02
2022-08-26T07:56:46.120Z,59.65
2022-08-26T07:59:19.608Z,59.54
2022-08-26T08:01:54.233Z,60.18
2022-08-26T08:04:28.407Z,59.60
2022-08-26T08:07:02.671Z,59.17
2022-08-26T08:09:35.636Z,58.91
2022-08-26T08:12:09.511Z,58.56
2022-08-26T08:14:48.837Z,58.29
2022-08-26T08:17:21.998Z,58.10
2022-08-26T08:19:56.126Z,58.32
2022-08-26T08:22:30.676Z,58.34
2022-08-26T08:25:06.255Z,57.74
2022-08-26T08:27:42.282Z,58.50
2022-08-26T08:30:20.815Z,58.44
2022-08-26T08:32:56.416Z,57.46
2022-08-26T08:35:29.223Z,56.72
2022-08-26T08:38:04.856Z,56.56
2022-08-26T08:40:41.449Z,57.15
2022-08-26T08:43:29.910Z,58.31
2022-08-26T08:46:09.566Z,57.51
2022-08-26T08:48:46.578Z,56.93
2022-08-26T08:51:26.019Z,56.51
2022-08-26T08:54:01.732Z,56.27
2022-08-26T08:56:38.661Z,56.50
2022-08-26T08:59:16.278Z,56.26
2022-08-26T09:01:58.946Z,55.77
2022-08-26T09:04:57.471Z,55.58
2022-08-26T09:07:36.838Z,55.19
2022-08-26T09:10:29.284Z,55.53
2022-08-26T09:13:05.777Z,55.49
2022-08-26T09:15:49.561Z,55.83
2022-08-26T09:18:32.718Z,55.49
2022-08-26T09:21:06.684Z,55.46
2022-08-26T09:23:42.819Z,55.27
2022-08-26T09:26:22.054Z,55.20
2022-08-26T09:28:58.367Z,55.33
2022-08-26T09:31:34.172Z,55.29
2022-08-26T09:34:17.571Z,55.46
2022-08-26T09:36:53.557Z,55.24
2022-08-26T09:39:30.679Z,55.46
2022-08-26T09:42:10.033Z,55.32
2022-08-26T09:44:59.389Z,55.19
2022-08-26T09:47:35.349Z,54.86
2022-08-26T09:50:19.859Z,55.00
2022-08-26T09:53:09.724Z,54.65
2022-08-26T09:55:47.757Z,54.50
2022-08-26T09:58:37.813Z,54.16
2022-08-26T10:01:17.563Z,54.20
2022-08-26T10:03:53.166Z,53.90
2022-08-26T10:06:28.299Z,53.80
2022-08-26T10:09:08.946Z,53.67
2022-08-26T10:11:48.150Z,53.72
2022-08-26T10:14:28.806Z,53.56
2022-08-26T10:17:07.073Z,53.62
2022-08-26T10:19:57.138Z,53.19
2022-08-26T10:22:38.318Z,53.29
2022-08-26T10:25:16.393Z,53.11
2022-08-26T10:28:00.036Z,53.10
2022-08-26T10:30:39.424Z,52.84
2022-08-26T10:33:17.965Z,52.73
2022-08-26T10:35:54.437Z,52.69
2022-08-26T10:38:34.305Z,52.47
2022-08-26T10:41:13.092Z,52.20
2022-08-26T10:43:53.606Z,52.23
2022-08-26T10:46:41.508Z,52.33
2022-08-26T10:49:16.161Z,52.45
2022-08-26T10:51:57.489Z,52.44
2022-08-26T10:54:38.337Z,52.07
2022-08-26T10:57:18.017Z,52.46
2022-08-26T10:59:58.766Z,51.85
2022-08-26T11:02:40.862Z,52.11
2022-08-26T11:05:22.467Z,51.69
2022-08-26T11:08:29.442Z,51.68
2022-08-26T11:11:03.011Z,51.33
2022-08-26T11:13:59.935Z,51.56
2022-08-26T11:16:34.576Z,51.33
2022-08-26T11:19:11.002Z,50.76
2022-08-26T11:22:06.221Z,50.86
2022-08-26T11:25:03.626Z,51.04
2022-08-26T11:27:57.530Z,50.83
2022-08-26T11:30:47.762Z,50.51
2022-08-26T11:33:57.986Z,50.54
2022-08-26T11:36:55.431Z,50.64
2022-08-26T11:39:36.737Z,50.15
2022-08-26T11:42:21.365Z,50.84
2022-08-26T11:44:55.514Z,50.09
2022-08-26T11:47:33.121Z,50.13
2022-08-26T11:50:12.187Z,50.38
2022-08-26T11:53:01.962Z,49.60
2022-08-26T11:55:38.022Z,49.75
2022-08-26T11:58:13.856Z,49.30
2022-08-26T12:00:52.625Z,49.39
2022-08-26T12:03:36.787Z,49.42
2022-08-26T12:06:15.221Z,49.44
2022-08-26T12:08:49.985Z,48.80
2022-08-26T12:11:25.036Z,48.76
2022-08-26T12:14:00.379Z,48.24
2022-08-26T12:16:36.435Z,48.53
2022-08-26T12:19:25.244Z,48.76
2022-08-26T12:22:03.370Z,48.16
2022-08-26T12:24:44.300Z,48.11
2022-08-26T12:27:21.979Z,47.91
2022-08-26T12:30:03.155Z,48.08
2022-08-26T12:32:51.002Z,47.58
2022-08-26T12:35:33.639Z,47.86
2022-08-26T12:38:06.678Z,47.99
2022-08-26T12:40:44.134Z,47.61
2022-08-26T12:43:38.593Z,47.25
2022-08-26T12:46:15.426Z,47.54
2022-08-26T12:48:50.133Z,45.48
2022-08-26T12:51:26.281Z,46.25
2022-08-26T12:54:00.041Z,46.19
2022-08-26T12:56:38.235Z,46.70
2022-08-26T12:59:23.097Z,47.75
2022-08-26T13:01:56.102Z,45.66
2022-08-26T13:04:34.835Z,46.59
2022-08-26T13:07:22.746Z,46.51
2022-08-26T13:09:57.437Z,46.44
2022-08-26T13:12:34.934Z,45.68
2022-08-26T13:15:09.522Z,44.65
2022-08-26T13:17:42.433Z,46.04
2022-08-26T13:20:15.178Z,45.81
2022-08-26T13:22:53.807Z,45.21
2022-08-26T13:25:31.743Z,43.91
2022-08-26T13:28:05.764Z,44.68
2022-08-26T13:30:39.115Z,44.58
2022-08-26T13:33:14.916Z,45.28
2022-08-26T13:35:47.984Z,44.88
2022-08-26T13:38:33.805Z,44.60
2022-08-26T13:41:07.293Z,44.65
2022-08-26T13:43:41.405Z,44.64
2022-08-26T13:46:14.420Z,44.59
2022-08-26T13:48:47.434Z,45.11
2022-08-26T13:51:22.292Z,45.44
2022-08-26T13:53:56.073Z,44.87
2022-08-26T13:56:30.387Z,44.37
2022-08-26T13:59:06.764Z,44.61
2022-08-26T14:01:40.569Z,44.60
2022-08-26T14:04:13.369Z,45.12
2022-08-26T14:06:46.016Z,45.00
2022-08-26T14:09:20.661Z,45.28
2022-08-26T14:11:54.821Z,44.36
2022-08-26T14:14:29.486Z,44.97
2022-08-26T14:17:02.653Z,44.64
2022-08-26T14:19:35.520Z,44.26
2022-08-26T14:22:08.107Z,44.61
2022-08-26T14:24:40.952Z,44.39
2022-08-26T14:27:14.346Z,44.52
2022-08-26T14:29:48.583Z,44.06
2022-08-26T14:32:27.084Z,44.29
2022-08-26T14:35:00.188Z,44.34
2022-08-26T14:37:33.060Z,43.62
2022-08-26T14:40:06.929Z,41.99
2022-08-26T14:42:39.744Z,43.69
2022-08-26T14:45:16.126Z,42.17
2022-08-26T14:47:50.804Z,44.30
2022-08-26T14:50:27.106Z,43.77
2022-08-26T14:53:17.579Z,41.96
2022-08-26T14:55:50.873Z,42.03
2022-08-26T14:58:23.635Z,42.74
2022-08-26T15:00:58.115Z,43.32
2022-08-26T15:03:33.667Z,42.72
2022-08-26T15:06:06.483Z,43.34
2022-08-26T15:08:40.096Z,42.82
2022-08-26T15:11:12.882Z,42.90
2022-08-26T15:13:45.547Z,43.79
2022-08-26T15:16:19.763Z,42.93
2022-08-26T15:18:52.731Z,42.41
2022-08-26T15:21:25.536Z,43.87
2022-08-26T15:23:59.733Z,42.87
2022-08-26T15:26:33.796Z,42.56
2022-08-26T15:29:07.245Z,42.22
2022-08-26T15:31:41.733Z,43.14
2022-08-26T15:34:16.732Z,42.35
2022-08-26T15:36:49.981Z,44.05
2022-08-26T15:39:22.802Z,43.87
2022-08-26T15:41:56.145Z,45.36
2022-08-26T15:44:29.294Z,43.72
2022-08-26T15:47:03.914Z,43.10
2022-08-26T15:49:36.733Z,43.76
2022-08-26T15:52:09.427Z,43.29
2022-08-26T15:54:42.280Z,44.40
2022-08-26T15:57:17.621Z,43.37
2022-08-26T15:59:52.528Z,43.96
2022-08-26T16:02:30.390Z,44.79
2022-08-26T16:05:05.379Z,45.21
2022-08-26T16:07:38.253Z,43.79
2022-08-26T16:10:11.218Z,44.38
2022-08-26T16:12:44.035Z,44.31
2022-08-26T16:15:16.805Z,43.65
2022-08-26T16:17:51.129Z,43.33
2022-08-26T16:20:26.056Z,44.17
2022-08-26T16:22:59.456Z,43.45
2022-08-26T16:25:32.582Z,45.06
2022-08-26T16:28:11.471Z,44.56
2022-08-26T16:30:45.692Z,44.89
2022-08-26T16:33:21.531Z,45.63
2022-08-26T16:36:02.089Z,45.46
2022-08-26T16:38:35.031Z,45.19
2022-08-26T16:41:08.799Z,44.79
2022-08-26T16:43:41.655Z,44.67
2022-08-26T16:46:16.148Z,45.60
2022-08-26T16:48:50.676Z,45.05
2022-08-26T16:51:24.908Z,46.16
2022-08-26T16:54:00.194Z,45.55
2022-08-26T16:56:34.057Z,45.08
2022-08-26T16:59:10.789Z,47.03
2022-08-26T17:01:43.616Z,47.00
2022-08-26T17:04:19.023Z,45.76
2022-08-26T17:06:51.862Z,45.24
2022-08-26T17:09:24.522Z,45.08
2022-08-26T17:11:57.312Z,46.09
2022-08-26T17:14:30.133Z,44.94
2022-08-26T17:17:03.256Z,44.63
2022-08-26T17:19:40.746Z,44.95
2022-08-26T17:22:16.468Z,45.97
2022-08-26T17:24:49.272Z,45.33
2022-08-26T17:27:21.853Z,45.21
2022-08-26T17:29:54.641Z,45.39
2022-08-26T17:32:27.329Z,45.97
2022-08-26T17:35:01.884Z,46.71
2022-08-26T17:37:35.665Z,46.25
2022-08-26T17:40:14.883Z,45.36
2022-08-26T17:42:47.992Z,44.90
2022-08-26T17:45:24.144Z,45.62
2022-08-26T17:47:57.237Z,45.75
2022-08-26T17:50:31.308Z,45.67
2022-08-26T17:53:04.057Z,45.83
2022-08-26T17:55:36.817Z,46.36
2022-08-26T17:58:09.800Z,46.25
2022-08-26T18:00:45.364Z,45.93
2022-08-26T18:03:19.068Z,46.15
2022-08-26T18:05:54.008Z,46.33
2022-08-26T18:08:26.711Z,46.00
2022-08-26T18:10:59.800Z,46.24
2022-08-26T18:13:33.132Z,46.52
2022-08-26T18:16:07.699Z,47.26
2022-08-26T18:18:42.158Z,46.33
2022-08-26T18:21:20.547Z,46.06
2022-08-26T18:23:54.577Z,46.54
2022-08-26T18:26:30.005Z,46.85
2022-08-26T18:29:03.418Z,46.58
2022-08-26T18:31:36.173Z,46.43
2022-08-26T18:34:13.067Z,46.13
2022-08-26T18:36:48.144Z,46.75
2022-08-26T18:39:22.104Z,47.00
2022-08-26T18:41:56.670Z,46.94
2022-08-26T18:44:29.316Z,47.89
2022-08-26T18:47:02.493Z,47.20
2022-08-26T18:49:35.752Z,47.97
2022-08-26T18:52:10.360Z,47.30
2022-08-26T18:54:43.449Z,47.76
2022-08-26T18:57:16.295Z,47.82
2022-08-26T18:59:49.008Z,47.46
2022-08-26T19:02:22.172Z,47.63
2022-08-26T19:04:55.055Z,47.84
2022-08-26T19:07:29.151Z,48.37
2022-08-26T19:10:01.839Z,48.43
2022-08-26T19:12:38.505Z,47.85
2022-08-26T19:15:12.024Z,47.87
2022-08-26T19:17:44.792Z,47.91
2022-08-26T19:20:17.706Z,47.91
2022-08-26T19:22:51.666Z,48.86
2022-08-26T19:25:24.393Z,48.22
2022-08-26T19:27:57.650Z,47.80
2022-08-26T19:30:31.122Z,48.43
2022-08-26T19:33:05.933Z,48.52
2022-08-26T19:35:38.899Z,48.54
2022-08-26T19:38:13.208Z,48.84
2022-08-26T19:40:45.939Z,48.95
2022-08-26T19:43:18.711Z,49.48
2022-08-26T19:45:52.386Z,50.42
2022-08-26T19:48:25.117Z,49.85
2022-08-26T19:50:57.849Z,49.68
2022-08-26T19:53:32.623Z,49.49
2022-08-26T19:56:05.311Z,49.82
2022-08-26T19:58:38.361Z,50.22
2022-08-26T20:01:11.637Z,50.27
2022-08-26T20:03:45.428Z,49.93
2022-08-26T20:06:20.093Z,50.20
2022-08-26T20:08:55.025Z,50.17
2022-08-26T20:11:29.792Z,49.94
2022-08-26T20:14:02.675Z,50.46
2022-08-26T20:16:35.519Z,50.52
2022-08-26T20:19:34.343Z,50.69
2022-08-26T20:22:14.067Z,51.34
2022-08-26T20:24:49.471Z,51.06
2022-08-26T20:27:27.562Z,51.30
2022-08-26T20:30:12.480Z,51.28
2022-08-26T20:32:45.306Z,51.68
2022-08-26T20:35:18.363Z,51.23
2022-08-26T20:37:51.079Z,50.76
2022-08-26T20:40:26.577Z,50.49
2022-08-26T20:42:59.653Z,50.45
2022-08-26T20:45:32.432Z,50.12
2022-08-26T20:48:05.373Z,50.11
2022-08-26T20:50:39.054Z,50.12
2022-08-26T20:53:11.824Z,50.20
2022-08-26T20:55:46.079Z,50.17
2022-08-26T20:58:19.367Z,49.98
2022-08-26T21:00:52.467Z,50.16
2022-08-26T21:03:25.439Z,50.18
2022-08-26T21:05:59.007Z,50.13
2022-08-26T21:08:33.108Z,50.03
2022-08-26T21:11:07.911Z,49.95
2022-08-26T21:14:01.561Z,50.22
2022-08-26T21:16:36.121Z,50.15
2022-08-26T21:19:11.844Z,49.82
2022-08-26T21:21:44.911Z,50.17
2022-08-26T21:24:18.562Z,50.07
2022-08-26T21:26:52.729Z,50.21
2022-08-26T21:29:25.924Z,50.13
2022-08-26T21:31:58.753Z,50.07
2022-08-26T21:34:31.489Z,50.26
2022-08-26T21:37:05.958Z,50.10
2022-08-26T21:39:48.261Z,50.17
2022-08-26T21:42:23.570Z,50.27
2022-08-26T21:44:56.802Z,49.95
2022-08-26T21:47:30.276Z,50.08
2022-08-26T21:50:03.143Z,50.14
2022-08-26T21:52:37.144Z,50.26
2022-08-26T21:55:11.808Z,50.06
2022-08-26T21:57:46.074Z,50.26
2022-08-26T22:00:19.909Z,50.16
2022-08-26T22:02:52.767Z,50.37
2022-08-26T22:05:25.456Z,50.33
2022-08-26T22:07:58.495Z,50.67
2022-08-26T22:10:31.281Z,50.32
2022-08-26T22:13:06.489Z,50.44
2022-08-26T22:15:40.714Z,50.60
2022-08-26T22:18:13.482Z,50.48
2022-08-26T22:20:46.529Z,50.89
2022-08-26T22:23:20.244Z,50.49
2022-08-26T22:25:53.366Z,50.79
2022-08-26T22:28:28.611Z,50.84
2022-08-26T22:31:01.936Z,50.79
2022-08-26T22:33:39.259Z,50.68
2022-08-26T22:36:19.534Z,50.35
2022-08-26T22:38:52.376Z,50.60
2022-08-26T22:41:26.151Z,50.43
2022-08-26T22:44:00.690Z,50.51
2022-08-26T22:46:34.908Z,50.47
2022-08-26T22:49:09.594Z,50.48
2022-08-26T22:51:43.061Z,50.38
2022-08-26T22:54:16.757Z,50.40
2022-08-26T22:56:49.657Z,50.57
2022-08-26T22:59:25.412Z,50.28
2022-08-26T23:01:58.416Z,50.48
2022-08-26T23:04:31.208Z,50.35
2022-08-26T23:07:08.033Z,50.34
2022-08-26T23:09:41.470Z,50.33
2022-08-26T23:12:14.243Z,50.57
2022-08-26T23:14:49.048Z,50.25
2022-08-26T23:17:22.389Z,50.33
2022-08-26T23:19:55.443Z,50.63
2022-08-26T23:22:28.558Z,50.57
2022-08-26T23:25:02.602Z,50.47
2022-08-26T23:27:42.514Z,50.75
2022-08-26T23:30:20.496Z,51.02
2022-08-26T23:32:57.759Z,50.89
2022-08-26T23:35:30.484Z,50.58
2022-08-26T23:38:03.697Z,50.92
2022-08-26T23:40:38.602Z,50.77
2022-08-26T23:43:12.468Z,50.94
2022-08-26T23:45:46.725Z,51.07
2022-08-26T23:48:19.913Z,50.83
2022-08-26T23:51:10.871Z,51.38
2022-08-26T23:53:43.871Z,50.78
2022-08-26T23:56:18.413Z,51.09
2022-08-26T23:58:51.442Z,51.15
